Time Latitude Longitude Accuracy (66% radius in meters) Altitude (meters) Speed (km/hour) Bearing (degrees) Battery (%) GPS flag
10:57:10 51.810982 39.391139 8 117.76104354772 0.00574761768803 143.70230102539 79 1 delete
10:57:07 51.810990 39.391153 6 117.76547569053 0.019895372912288 143.70230102539 79 1 delete
10:56:58 51.810970 39.391171 4 117.75960447016 0.021793091669679 143.70230102539 79 1 delete
10:56:46 51.810960 39.391211 6 117.65187410076 0.036296501755714 143.70230102539 79 1 delete
10:56:34 51.810972 39.391224 4 117.563970793 0.013362315483391 143.70230102539 79 1 delete
10:56:31 51.810962 39.391220 6 117.55330171587 0.041920140385628 143.70230102539 79 1 delete
10:56:22 51.810911 39.391268 6 117.4518495598 0.029499059543014 143.70230102539 79 1 delete
10:56:07 51.810921 39.391252 6 117.26747341816 0.065922699868679 143.70230102539 79 1 delete
10:55:55 51.810978 39.391188 6 117.09315165988 0.016396008431911 143.70230102539 79 1 delete
10:55:43 51.810997 39.391161 6 116.79747108123 0.016997050493956 143.70230102539 79 1 delete
10:55:31 51.810995 39.391144 6 116.68593810125 0.02157474681735 143.70230102539 79 1 delete
10:55:17 51.811000 39.391142 6 116.58389864614 0.015383774414659 143.70230102539 79 1 delete
10:55:02 51.811000 39.391152 6 116.22594581303 0.026572272181511 143.70230102539 79 1 delete
10:54:44 51.810978 39.391155 4 115.93599319895 0.03581839427352 143.70230102539 79 1 delete
10:54:29 51.811012 39.391136 6 115.80138561679 0.028247509151697 143.70230102539 79 1 delete
10:54:17 51.811025 39.391123 6 115.6965863688 0.05876898765564 143.70230102539 79 1 delete
10:53:59 51.811021 39.391132 6 115.5003955778 0.083701953291893 143.70230102539 79 1 delete
10:53:44 51.811017 39.391134 6 115.37150844153 0.008534056134522 143.70230102539 79 1 delete
10:53:26 51.811005 39.391157 6 115.28173408697 0.011069118976593 143.70230102539 79 1 delete
10:53:11 51.811028 39.391142 6 115.1717451459 0.021923454478383 143.70230102539 79 1 delete
10:52:59 51.811015 39.391158 4 115.06477915775 0.084695510566235 143.70230102539 79 1 delete
10:52:38 51.811007 39.391139 4 114.88428951988 0.014332051388919 143.70230102539 79 1 delete
10:52:23 51.810998 39.391147 4 114.71753978669 0.014860060065985 143.70230102539 79 1 delete
10:52:11 51.810996 39.391149 4 114.54309823154 0.033087689429522 143.70230102539 79 1 delete
10:51:59 51.810986 39.391127 4 114.3660407121 0.026337089017034 143.70230102539 79 1 delete
10:51:47 51.810984 39.391114 6 114.26147306678 0.054868895560503 143.70230102539 79 1 delete
10:51:35 51.810981 39.391118 6 114.19466669175 0.024359278380871 143.70230102539 79 1 delete
10:51:20 51.810981 39.391129 6 114.09168989272 0.021784963086247 143.70230102539 79 1 delete
10:51:08 51.810984 39.391123 6 113.96744055059 0.011587434448302 143.70230102539 82 1 delete
10:50:53 51.810971 39.391120 4 113.93025638751 0.020236242562532 143.70230102539 82 1 delete
10:50:41 51.810966 39.391129 4 113.86924822936 0.029994942247868 143.70230102539 82 1 delete
10:50:26 51.810990 39.391069 4 113.81518982619 0.029943060129881 143.70230102539 82 1 delete
10:50:14 51.810983 39.391077 6 113.87042578479 0.017143229022622 143.70230102539 82 1 delete
10:49:50 51.810967 39.391101 4 113.80934960584 0.029861444607377 143.70230102539 82 1 delete
10:49:35 51.810980 39.391104 4 113.75410713933 0.012217500247061 143.70230102539 82 1 delete
10:49:23 51.810987 39.391107 6 113.5700871958 0.048323705792427 143.70230102539 82 1 delete
10:49:05 51.810991 39.391101 4 113.47784452876 0.036051832139492 143.70230102539 82 1 delete
10:48:50 51.810994 39.391096 4 113.45295472527 0.0019755421672016 143.70230102539 82 1 delete
10:48:35 51.810994 39.391104 4 113.42878023596 0.019143480807543 143.70230102539 82 1 delete
10:48:14 51.810997 39.391102 4 113.38562085777 0.0035303025506437 143.70230102539 82 1 delete
10:48:02 51.810994 39.391102 4 113.34960622152 0.012646198272705 143.70230102539 82 1 delete
10:47:47 51.810990 39.391108 4 113.28813143401 0.022576527670026 143.70230102539 82 1 delete
10:47:35 51.810985 39.391106 6 113.2348177755 0.030206881463528 143.70230102539 82 1 delete
10:47:17 51.810981 39.391104 6 113.16197626424 0.046979140490294 143.70230102539 82 1 delete
10:47:05 51.810994 39.391094 6 113.09682337326 0.011783710680902 143.70230102539 82 1 delete
10:46:53 51.810995 39.391097 6 112.98981563049 0.0062322425656021 143.70230102539 82 1 delete
10:46:41 51.810986 39.391119 6 112.84279727406 0.0085223997011781 143.70230102539 82 1 delete
10:46:29 51.810989 39.391119 6 112.66866202535 0.024441605433822 143.70230102539 82 1 delete
10:46:17 51.810990 39.391115 6 112.51875119053 0.051470905542374 143.70230102539 82 1 delete
10:46:05 51.810990 39.391110 6 112.39926760332 0.02359969727695 143.70230102539 82 1 delete